Home > Products > Valid Products > TAF

000
FTUS41 KLWX 172300 RRA
TAFIAD
TAF
KIAD 172343Z 1800/1906 31010KT P6SM SKC
     FM181400 31012G20KT P6SM FEW040
     FM190000 31006KT P6SM BKN040=



000
FTUS41 KLWX 172300 RRA
TAFMTN
TAF
KMTN 172343Z 1800/1824 30012KT P6SM FEW050
     FM181400 29013G22KT P6SM FEW040
      AMD NOT SKED 1802/1812=



000
FTUS41 KLWX 172300 RRA
TAFMRB
TAF
KMRB 172343Z 1800/1824 31013KT P6SM SCT050
     FM181400 30012G20KT P6SM SCT040
     FM182300 30009KT P6SM BKN040=



000
FTUS41 KLWX 172300 RRA
TAFCHO
TAF
KCHO 172343Z 1800/1824 30004KT P6SM FEW100
     FM181500 30009KT P6SM SCT050
     FM182000 29004KT P6SM SCT040=



000
FTUS41 KLWX 172300 RRA
TAFDCA
TAF
KDCA 172343Z 1800/1824 32012KT P6SM SKC
     FM181400 30012G20KT P6SM FEW040=



000
FTUS41 KLWX 172300 RRA
TAFBWI
TAF
KBWI 172343Z 1800/1906 29012KT P6SM SKC
     FM181400 29012G20KT P6SM FEW040
     FM190000 30007KT P6SM BKN040=



000
FTUS41 KLWX 172000 AAA
TAFMRB
TAF AMD
KMRB 172044Z 1721/1818 29012G20KT P6SM SCT050
     FM180400 30010KT P6SM FEW050
     FM181400 29012G20KT P6SM SCT040=



000
FTUS41 KLWX 172000 AAA
TAFIAD
TAF AMD
KIAD 172044Z 1721/1824 30012G18KT P6SM FEW050
     FM180000 30009KT P6SM SKC
     FM181400 31012G20KT P6SM FEW040=



000
FTUS41 KLWX 172000 AAA
TAFBWI
TAF AMD
KBWI 172044Z 1721/1824 29012G22KT P6SM FEW050
     FM180300 28010KT P6SM SKC
     FM181400 29012G21KT P6SM FEW040=



000
FTUS41 KLWX 172000 AAA
TAFDCA
TAF AMD
KDCA 172044Z 1721/1818 30012G19KT P6SM FEW050
     FM180200 29008KT P6SM SKC
     FM181400 30012G19KT P6SM FEW040=



000
FTUS41 KLWX 171700
TAFCHO
TAF
KCHO 171735Z 1718/1818 29011KT P6SM BKN050
     FM172100 29008KT P6SM FEW050
     FM180300 28005KT P6SM FEW250=



000
FTUS41 KLWX 171700
TAFMTN
TAF
KMTN 171735Z 1718/1818 28015G22KT P6SM BKN050
     FM180300 29011G19KT P6SM FEW250
     FM181300 30008KT P6SM BKN150=



000
FTUS41 KLWX 171700
TAFDCA
TAF
KDCA 171735Z 1718/1818 29013G22KT P6SM SCT050
     FM180200 29009KT P6SM FEW050
     FM180300 29009KT P6SM FEW250=



000
FTUS41 KLWX 171700
TAFBWI
TAF
KBWI 171735Z 1718/1824 28013G22KT P6SM SCT050
     FM180300 29011G19KT P6SM FEW250
     FM181300 30008KT P6SM BKN150=



000
FTUS41 KLWX 171700
TAFMRB
TAF
KMRB 171735Z 1718/1818 30014G23KT P6SM BKN050
     FM172200 29012G20KT P6SM SCT050
     FM180300 29010KT P6SM SCT250=



000
FTUS41 KLWX 171700
TAFIAD
TAF
KIAD 171735Z 1718/1824 29014G23KT P6SM SCT050
     FM180000 30010KT P6SM FEW050
     FM180300 30009KT P6SM FEW250=



000
FTUS41 KLWX 171400 AAA
TAFBWI
TAF AMD
KBWI 171439Z 1715/1818 24005KT P6SM FEW035 SCT100
     FM171600 30012G20KT P6SM SCT040
     FM180300 29011G19KT P6SM SCT250
     FM180400 29010KT P6SM SCT030 SCT100
     FM181500 30012G19KT P6SM SCT200=



000
FTUS41 KLWX 171400 AAA
TAFDCA
TAF AMD
KDCA 171439Z 1715/1812 30006KT P6SM FEW050
     FM171600 29012G22KT P6SM SCT040
     FM180200 29009KT P6SM FEW050=



000
FTUS41 KLWX 171400 AAA
TAFIAD
TAF AMD
KIAD 171439Z 1715/1818 27003KT P6SM SCT050
     FM171600 30012G20KT P6SM SCT040
     FM180300 30009KT P6SM SCT250=



000
FTUS41 KLWX 171200 AAA
TAFMTN
TAF AMD
KMTN 171203Z 1712/1812 VRB04KT 5SM BR SCT250
     FM171400 28013G22KT P6SM SCT040
     FM172300 28009G16KT P6SM SCT100=



000
FTUS41 KLWX 171100
TAFBWI
TAF
KBWI 171136Z 1712/1818 23006KT P6SM SCT040
     FM171400 28013G22KT P6SM SCT040
     FM172300 28009KT P6SM FEW100
     FM180400 29010KT P6SM SCT030 SCT100
     FM181500 30012G19KT P6SM SCT200=



000
FTUS41 KLWX 171100
TAFCHO
TAF
KCHO 171136Z 1712/1812 23005KT P6SM SCT050
     FM171500 27011G19KT P6SM SCT040
     FM172200 27006KT P6SM SCT100=



000
FTUS41 KLWX 171100
TAFMTN
TAF
KMTN 171136Z 1712/1812 VRB04KT 3SM BR OVC005
     FM171400 28013G22KT P6SM SCT040
     FM172300 28009G16KT P6SM SCT100=



000
FTUS41 KLWX 171100
TAFMRB
TAF
KMRB 171136Z 1712/1812 28007KT P6SM OVC030
     FM171400 28012G20KT P6SM OVC030
     FM171900 29014G24KT P6SM BKN040
     FM172300 29011KT P6SM SCT030 SCT100=



000
FTUS41 KLWX 171100
TAFIAD
TAF
KIAD 171136Z 1712/1818 28006KT P6SM SCT020 SCT040
     FM171500 30012G20KT P6SM SCT040
     FM172300 30009KT P6SM FEW100
     FM180400 29008KT P6SM SCT030 SCT100
     FM181500 30011G18KT P6SM SCT200=



000
FTUS41 KLWX 171100
TAFDCA
TAF
KDCA 171136Z 1712/1812 23007KT P6SM SCT040
     FM171500 29012G22KT P6SM SCT040
     FM172300 29008KT P6SM FEW100
     FM180700 30010KT P6SM SCT030 SCT100=



000
FTUS41 KLWX 171000 AAB
TAFBWI
TAF AMD
KBWI 171006Z 1710/1812 26006KT P6SM SCT035
     FM171400 28013G22KT P6SM SCT050
     FM172300 28009KT P6SM FEW100
     FM180400 29010KT P6SM SCT030 SCT100=



000
FTUS41 KLWX 171000 AAB
TAFBWI
TAF AMD
KBWI 171006Z 1710/1812 26006KT P6SM SCT035
     FM171400 28013G22KT P6SM SCT050
     FM172300 28009KT P6SM FEW100
     FM180400 29010KT P6SM SCT030 SCT100=



000
FTUS41 KLWX 171000 AAB
TAFDCA
TAF AMD
KDCA 171005Z 1710/1806 25006KT P6SM SCT250
     FM171200 27007KT P6SM BKN040
     FM171500 29012G22KT P6SM SCT050
     FM172300 30009KT P6SM FEW100=



000
FTUS41 KLWX 171000 AAB
TAFDCA
TAF AMD
KDCA 171005Z 1710/1806 25006KT P6SM SCT250
     FM171200 27007KT P6SM BKN040
     FM171500 29012G22KT P6SM SCT050
     FM172300 30009KT P6SM FEW100=



000
FTUS41 KLWX 171000 AAB
TAFIAD
TAF AMD
KIAD 171004Z 1710/1812 VRB04KT P6SM SCT040
     FM171100 28006KT P6SM SCT020 BKN040
     FM171500 30012G20KT P6SM SCT050
     FM172300 30009KT P6SM FEW100
     FM180400 29008KT P6SM SCT030 SCT100=



000
FTUS41 KLWX 171000 AAB
TAFIAD
TAF AMD
KIAD 171004Z 1710/1812 VRB04KT P6SM SCT040
     FM171100 28006KT P6SM SCT020 BKN040
     FM171500 30012G20KT P6SM SCT050
     FM172300 30009KT P6SM FEW100
     FM180400 29008KT P6SM SCT030 SCT100=



000
FTUS41 KLWX 170800 AAB
TAFMRB
TAF AMD
KMRB 170848Z 1709/1806 28013KT P6SM BKN030
     FM171400 28015G24KT P6SM SCT040
     FM172300 29011KT P6SM SCT100=



000
FTUS41 KLWX 170800 AAB
TAFMRB
TAF AMD
KMRB 170848Z 1709/1806 28013KT P6SM BKN030
     FM171400 28015G24KT P6SM SCT040
     FM172300 29011KT P6SM SCT100=



000
FTUS41 KLWX 170800 AAA
TAFBWI
TAF AMD
KBWI 170847Z 1709/1812 28006KT P6SM SCT005 BKN035
      TEMPO 1709/1712 4SM BR
     FM171400 28013G22KT P6SM SCT050
     FM172300 28009KT P6SM FEW100
     FM180400 29010KT P6SM SCT030 SCT100=



000
FTUS41 KLWX 170800 AAA
TAFBWI
TAF AMD
KBWI 170847Z 1709/1812 28006KT P6SM SCT005 BKN035
      TEMPO 1709/1712 4SM BR
     FM171400 28013G22KT P6SM SCT050
     FM172300 28009KT P6SM FEW100
     FM180400 29010KT P6SM SCT030 SCT100=



000
FTUS41 KLWX 170800 AAA
TAFDCA
TAF AMD
KDCA 170846Z 1709/1806 VRB03KT 3SM BR SCT005 BKN040
     FM171200 27006KT P6SM SCT040
     FM171500 29012G22KT P6SM SCT050
     FM172300 30009KT P6SM FEW100=



000
FTUS41 KLWX 170800 AAA
TAFDCA
TAF AMD
KDCA 170846Z 1709/1806 VRB03KT 3SM BR SCT005 BKN040
     FM171200 27006KT P6SM SCT040
     FM171500 29012G22KT P6SM SCT050
     FM172300 30009KT P6SM FEW100=



000
FTUS41 KLWX 170800 AAA
TAFIAD
TAF AMD
KIAD 170845Z 1709/1812 VRB04KT 3SM BR SCT003 BKN030
     FM171100 28006KT 6SM BR SCT020 SCT050
     FM171500 30012G20KT P6SM SCT050
     FM172300 30009KT P6SM FEW100
     FM180400 29008KT P6SM SCT030 SCT100=



000
FTUS41 KLWX 170800 AAA
TAFIAD
TAF AMD
KIAD 170845Z 1709/1812 VRB04KT 3SM BR SCT003 BKN030
     FM171100 28006KT 6SM BR SCT020 SCT050
     FM171500 30012G20KT P6SM SCT050
     FM172300 30009KT P6SM FEW100
     FM180400 29008KT P6SM SCT030 SCT100=



000
FTUS41 KLWX 170700 AAA
TAFMRB
TAF AMD
KMRB 170703Z 1707/1806 VRB03KT 4SM BR BKN035
     FM170900 VRB04KT 4SM BR BKN008 OVC012
     FM171400 28012G24KT P6SM SCT040
     FM172200 29011KT P6SM SCT100=



000
FTUS41 KLWX 170500 RRA
TAFDCA
TAF
KDCA 170542Z 1706/1806 28005KT 4SM BR OVC007
     FM171200 27006KT P6SM SCT007 SCT040
     FM171500 29012G22KT P6SM SCT050
     FM172300 30009KT P6SM FEW100=



000
FTUS41 KLWX 170500 RRA
TAFMRB
TAF
KMRB 170542Z 1706/1806 VRB03KT 1/4SM FG VV001
     FM171200 28008KT 3SM BR BKN025
     FM171400 28012G24KT P6SM SCT040
     FM172200 29011KT P6SM SCT100=



000
FTUS41 KLWX 170500 RRA
TAFMTN
TAF
KMTN 170542Z 1706/1806 NIL=



000
FTUS41 KLWX 170500 RRA
TAFBWI
TAF
KBWI 170542Z 1706/1812 28007KT 5SM BR SCT008 BKN100
     FM170800 28006KT 3SM BR BKN008 OVC012
     FM171100 27007KT P6SM SCT008 SCT040
     FM171400 28013G22KT P6SM SCT050
     FM172300 28009KT P6SM FEW100
     FM180400 29010KT P6SM SCT030 SCT100=



000
FTUS41 KLWX 170500 RRA
TAFCHO
TAF
KCHO 170542Z 1706/1806 VRB05KT 5SM BR FEW050
     FM171500 27011G20KT P6SM SCT040
     FM172200 26006KT P6SM FEW100=



000
FTUS41 KLWX 170500 RRA
TAFIAD
TAF
KIAD 170542Z 1706/1812 VRB04KT 1/2SM FG OVC002
     FM171200 27006KT 4SM BR BKN020
     FM171500 30012G20KT P6SM SCT050
     FM172300 30009KT P6SM FEW100
     FM180400 29008KT P6SM SCT030 SCT100=



000
FTUS41 KLWX 170400 AAC
TAFIAD
TAF AMD
KIAD 170459Z 1705/1806 VRB04KT 1/2SM FG OVC002
     FM170900 27008KT P6SM BKN025
     FM171100 28010KT P6SM SCT045
     FM171500 29012G20KT P6SM SCT045
     FM180000 30008KT P6SM SCT250=



000
FTUS41 KLWX 170400 AAC
TAFIAD
TAF AMD
KIAD 170459Z 1705/1806 VRB04KT 1/2SM FG OVC002
     FM170900 27008KT P6SM BKN025
     FM171100 28010KT P6SM SCT045
     FM171500 29012G20KT P6SM SCT045
     FM180000 30008KT P6SM SCT250=



000
FTUS41 KLWX 170400 AAC
TAFMRB
TAF AMD
KMRB 170447Z 1705/1724 VRB04KT 1/2SM FG OVC001
      TEMPO 1705/1709 1/4SM FG
     FM171000 28008KT 4SM BR BKN025
     FM171500 28012G20KT P6SM BKN045
     FM171700 28013G25KT P6SM SCT040=



000
FTUS41 KLWX 170400 AAC
TAFMRB
TAF AMD
KMRB 170447Z 1705/1724 VRB04KT 1/2SM FG OVC001
      TEMPO 1705/1709 1/4SM FG
     FM171000 28008KT 4SM BR BKN025
     FM171500 28012G20KT P6SM BKN045
     FM171700 28013G25KT P6SM SCT040=



000
FTUS41 KLWX 170400 AAC
TAFCHO
TAF AMD
KCHO 170446Z 1705/1724 24005KT 5SM BR OVC005
     FM170900 VRB04KT P6SM SCT050
     FM171800 28011G20KT P6SM SCT040=



000
FTUS41 KLWX 170400 AAC
TAFCHO
TAF AMD
KCHO 170446Z 1705/1724 24005KT 5SM BR OVC005
     FM170900 VRB04KT P6SM SCT050
     FM171800 28011G20KT P6SM SCT040=



000
FTUS41 KLWX 170400 AAA
TAFBWI
TAF AMD
KBWI 170444Z 1705/1806 27006KT 4SM BR OVC008
     FM170700 25005KT P6SM BKN015
     FM171100 27007KT P6SM SCT040
     FM171500 28012G22KT P6SM SCT045
     FM180000 28009KT P6SM SCT250=



000
FTUS41 KLWX 170400 AAA
TAFBWI
TAF AMD
KBWI 170444Z 1705/1806 27006KT 4SM BR OVC008
     FM170700 25005KT P6SM BKN015
     FM171100 27007KT P6SM SCT040
     FM171500 28012G22KT P6SM SCT045
     FM180000 28009KT P6SM SCT250=



000
FTUS41 KLWX 170400 AAA
TAFDCA
TAF AMD
KDCA 170444Z 1705/1724 27007KT 4SM BR OVC008
     FM170700 27006KT P6SM BKN025
     FM171000 28007KT P6SM SCT045
     FM171500 28012G22KT P6SM SCT045=



000
FTUS41 KLWX 170400 AAA
TAFDCA
TAF AMD
KDCA 170444Z 1705/1724 27007KT 4SM BR OVC008
     FM170700 27006KT P6SM BKN025
     FM171000 28007KT P6SM SCT045
     FM171500 28012G22KT P6SM SCT045=



000
FTUS41 KLWX 170400 AAB
TAFIAD
TAF AMD
KIAD 170441Z 1705/1806 VRB04KT 2SM BR OVC002
     FM170700 26005KT 5SM BR BKN012
     FM170900 27008KT P6SM BKN025
     FM171100 28010KT P6SM SCT045
     FM171500 29012G20KT P6SM SCT045
     FM180000 30008KT P6SM SCT250=



000
FTUS41 KLWX 170300 AAB
TAFMRB
TAF AMD
KMRB 170329Z 1703/1724 VRB03KT 1/2SM FG OVC001
     FM170500 26007KT 3SM BR OVC008
     FM171000 28008KT P6SM BKN025
     FM171500 28012G20KT P6SM BKN045
     FM171700 28013G25KT P6SM SCT040=



000
FTUS41 KLWX 170200 AAB
TAFCHO
TAF AMD
KCHO 170211Z 1702/1724 23005KT 1SM BR OVC003
     FM170800 26005KT 5SM BR OVC008
     FM171200 19008KT P6SM SCT030
     FM171800 28011G20KT P6SM SCT040=



000
FTUS41 KLWX 170100 AAA
TAFIAD
TAF AMD
KIAD 170130Z 1702/1806 22004KT 1SM -DZ OVC002
     FM170300 23004KT 2SM BR OVC005
     FM170600 26005KT 5SM BR BKN015
     FM170800 27008KT P6SM BKN025
     FM171100 28010KT P6SM SCT045
     FM171500 29012G20KT P6SM SCT045
     FM180000 30008KT P6SM SCT250=



000
FTUS41 KLWX 170100 AAA
TAFMRB
TAF AMD
KMRB 170118Z 1701/1724 VRB03KT 1SM -SHRA OVC003
     FM170500 26007KT 5SM BR OVC008
     FM171000 28008KT P6SM BKN025
     FM171500 28012G20KT P6SM BKN045
     FM171700 28013G25KT P6SM SCT040=



000
FTUS41 KLWX 170100 AAA
TAFCHO
TAF AMD
KCHO 170116Z 1701/1724 23005KT 3SM BR SCT060
     FM170800 26005KT 6SM BR BKN015
     FM171200 19008KT P6SM SCT030
     FM171800 28011G20KT P6SM SCT040=



000
FTUS41 KLWX 170000 AAA
TAFMTN
TAF AMD
KMTN 170030Z 1701/1724 18006KT 1SM -DZ OVC002
     FM170300 21004KT 5SM BR OVC006
     FM170600 24004KT P6SM BKN015
     FM170800 25006KT P6SM BKN025
     FM171200 27007KT P6SM SCT050
     FM171500 27012G22KT P6SM SCT045
      AMD NOT SKED 1702/1712=



000
FTUS41 KLWX 162300
TAFMTN
TAF
KMTN 162322Z 1700/1724 18006KT 2SM -DZ OVC006
     FM170300 21004KT 5SM BR OVC008
     FM170600 24004KT P6SM BKN015
     FM170800 25006KT P6SM BKN025
     FM171200 27007KT P6SM SCT050
     FM171500 27012G22KT P6SM SCT045
      AMD NOT SKED 1702/1712=



000
FTUS41 KLWX 162300
TAFDCA
TAF
KDCA 162322Z 1700/1724 20004KT 3SM -DZ OVC006
     FM170200 23004KT 5SM BR OVC008
     FM170400 25005KT P6SM BKN015
     FM170600 26006KT P6SM BKN025
     FM170700 26006KT P6SM BKN035
     FM170800 26007KT P6SM SCT045
     FM171500 28012G22KT P6SM SCT045=



000
FTUS41 KLWX 162300
TAFMRB
TAF
KMRB 162322Z 1700/1724 VRB03KT 3SM -SHRA OVC006
     FM170500 26007KT P6SM BKN008
     FM171200 28008KT P6SM BKN025
     FM171500 28012G20KT P6SM BKN045
     FM171700 28013G25KT P6SM SCT040=



000
FTUS41 KLWX 162300
TAFIAD
TAF
KIAD 162322Z 1700/1806 22004KT 2SM -DZ OVC003
     FM170200 23004KT 5SM BR OVC008
     FM170600 26005KT P6SM BKN015
     FM170800 27008KT P6SM BKN025
     FM171100 28010KT P6SM SCT045
     FM171500 29012G20KT P6SM SCT045
     FM180000 30008KT P6SM SCT250=



000
FTUS41 KLWX 162300
TAFCHO
TAF
KCHO 162322Z 1700/1724 23005KT 3SM BR OVC008
     FM170800 26005KT 6SM BR BKN015
     FM171200 19008KT P6SM SCT030
     FM171800 28011G20KT P6SM SCT040=



000
FTUS41 KLWX 162300
TAFBWI
TAF
KBWI 162322Z 1700/1806 19005KT 2SM -DZ OVC003
     FM170300 23004KT 5SM BR OVC003
     FM170500 24004KT P6SM BKN008
     FM170700 25005KT P6SM BKN015
     FM171100 27007KT P6SM SCT040
     FM171500 28012G22KT P6SM SCT045
     FM180000 28009KT P6SM SCT250=



000
FTUS41 KLWX 162300 AAC
TAFMRB
TAF AMD
KMRB 162306Z 1623/1718 16007KT 4SM -SHRA BR OVC006
     FM170300 28009KT 5SM BR BKN015
     FM171000 27008KT P6SM SCT090
     FM171500 28012G20KT P6SM SCT050=



000
FTUS41 KLWX 162200 AAC
TAFIAD
TAF AMD
KIAD 162246Z 1623/1724 21006KT 2SM -DZ VCSH OVC005
     FM170200 24004KT P6SM BKN009
     FM170400 25005KT P6SM BKN015
     FM170600 29011KT P6SM FEW060
     FM171400 29013G22KT P6SM SCT040
     FM172300 29009KT P6SM FEW250=



000
FTUS41 KLWX 162100 AAB
TAFMRB
TAF AMD
KMRB 162129Z 1621/1718 05003KT 2SM BR VCSH OVC006
     FM162300 16007KT 5SM BR OVC030
     FM171000 27008KT P6SM SCT090
     FM171500 28012G20KT P6SM SCT050=



000
FTUS41 KLWX 162100 AAB
TAFCHO
TAF AMD
KCHO 162128Z 1621/1718 19003KT 2SM BR OVC006
     FM162300 20004KT 5SM BR OVC015
     FM170200 24005KT P6SM SCT050
     FM170600 26005KT P6SM FEW250=



000
FTUS41 KLWX 162100 AAB
TAFBWI
TAF AMD
KBWI 162127Z 1621/1724 15004KT 2SM BR BKN006 OVC015
     FM162300 18005KT 3SM BR OVC008
     FM170300 24004KT 5SM BR BKN015
     FM170600 26006KT P6SM SCT090
     FM171400 28010G18KT P6SM SCT090=



000
FTUS41 KLWX 162100 AAB
TAFDCA
TAF AMD
KDCA 162126Z 1621/1718 18007KT 3SM BR OVC012
     FM162300 19006KT 5SM BR BKN015
     FM170400 24004KT P6SM BKN050
     FM170600 26006KT P6SM SCT050
     FM171400 28010G18KT P6SM SCT250=



000
FTUS41 KLWX 162100 AAB
TAFIAD
TAF AMD
KIAD 162125Z 1621/1724 11004KT 3SM BR OVC009
     FM162300 21006KT 5SM BR OVC012
     FM170200 24004KT P6SM BKN015
     FM170400 25005KT P6SM SCT050
     FM171400 29013G22KT P6SM SCT250
     FM172300 29009KT P6SM FEW250=



000
FTUS41 KLWX 162100 AAB
TAFMTN
TAF AMD
KMTN 162123Z 1621/1718 12006KT 2SM BR OVC011
     FM162300 17006KT P6SM OVC015
     FM170300 VRB03KT P6SM BKN025
     FM170600 25005KT P6SM BKN090
     FM171000 26006KT P6SM SCT250
     FM171500 27011G20KT P6SM SCT250=



000
FTUS41 KLWX 161900 AAA
TAFMRB
TAF AMD
KMRB 161957Z 1620/1718 05003KT 1 1/2SM -RA BR OVC004
     FM162300 16007KT P6SM OVC030
     FM171100 27008KT P6SM SCT090
     FM171500 28012G20KT P6SM SCT050=



000
FTUS41 KLWX 161900 AAA
TAFIAD
TAF AMD
KIAD 161957Z 1620/1724 11004KT 2SM -RA BR SCT005 BKN050 OVC090
     FM162200 21006KT 5SM BR OVC050
     FM170300 24004KT P6SM BKN050
     FM170500 25005KT P6SM SCT050
     FM171400 29013G22KT P6SM SCT250
     FM172300 29009KT P6SM FEW250=



000
FTUS41 KLWX 161900 AAA
TAFBWI
TAF AMD
KBWI 161957Z 1620/1724 15004KT 1 1/2SM RA BR BKN019 OVC060
     FM162200 17006KT 5SM -SHRA OVC015
     FM162300 18005KT P6SM OVC008
     FM170300 24004KT P6SM BKN025
     FM170600 26006KT P6SM BKN090
     FM171400 28010G18KT P6SM SCT090=



000
FTUS41 KLWX 161900 AAA
TAFMTN
TAF AMD
KMTN 161957Z 1620/1718 00000KT 2SM RA OVC010
     FM162100 17006KT 3SM -SHRA OVC025
     FM162300 18006KT P6SM OVC015
     FM170300 VRB03KT P6SM BKN025
     FM170600 25005KT P6SM BKN090
     FM171000 26006KT P6SM SCT250
     FM171500 27011G20KT P6SM SCT250=



000
FTUS41 KLWX 161900 AAA
TAFCHO
TAF AMD
KCHO 161957Z 1620/1718 19003KT 2SM BR FEW003 OVC019
     FM162300 20004KT 5SM BR OVC020
     FM170200 24005KT P6SM SCT050
     FM170600 26005KT P6SM FEW250=



000
FTUS41 KLWX 161900 AAA
TAFDCA
TAF AMD
KDCA 161957Z 1620/1718 16006KT 1 1/2SM RA SCT017 OVC060
     FM162100 18007KT 3SM -SHRA OVC015
     FM162300 19006KT P6SM BKN015
     FM170300 24004KT P6SM BKN050
     FM170500 26006KT P6SM SCT050
     FM171400 28010G18KT P6SM SCT250=



000
FTUS41 KLWX 161700
TAFDCA
TAF
KDCA 161740Z 1618/1718 16006KT 1 1/2SM RA SCT017 OVC060
     FM162000 18007KT 5SM -SHRA OVC015
     FM162100 19006KT P6SM BKN015
     FM170300 24004KT P6SM BKN050
     FM170500 26006KT P6SM SCT050
     FM171400 28010G18KT P6SM SCT250=



000
FTUS41 KLWX 161700
TAFMRB
TAF
KMRB 161740Z 1618/1718 05003KT 1 1/2SM -RA BR OVC004
     FM162100 16007KT P6SM OVC030
     FM162200 VRB03KT P6SM BKN050
     FM171100 27008KT P6SM SCT090
     FM171500 28012G20KT P6SM SCT050=



000
FTUS41 KLWX 161700
TAFMTN
TAF
KMTN 161740Z 1618/1718 00000KT 2SM RA OVC010
     FM162100 17006KT 3SM -SHRA OVC025
     FM162300 18006KT P6SM OVC015
     FM170300 VRB03KT P6SM BKN025
     FM170600 25005KT P6SM BKN090
     FM171000 26006KT P6SM SCT250
     FM171500 27011G20KT P6SM SCT250=



000
FTUS41 KLWX 161700
TAFCHO
TAF
KCHO 161740Z 1618/1718 19003KT 2SM BR FEW003 OVC019
     FM162100 20004KT 5SM BR OVC020
     FM170200 24005KT P6SM SCT050
     FM170600 26005KT P6SM FEW250=



000
FTUS41 KLWX 161700
TAFBWI
TAF
KBWI 161740Z 1618/1724 15004KT 1 1/2SM RA BR BKN019 OVC060
     FM162000 17006KT 5SM -SHRA OVC015
     FM162300 18005KT P6SM OVC008
     FM170300 24004KT P6SM BKN025
     FM170600 26006KT P6SM BKN090
     FM171400 28010G18KT P6SM SCT090=



000
FTUS41 KLWX 161700
TAFIAD
TAF
KIAD 161740Z 1618/1724 11004KT 2SM -RA BR SCT005 BKN050 OVC090
     FM162000 21006KT 5SM BR OVC050
     FM162100 18006KT P6SM BKN015
     FM162300 20005KT P6SM BKN008
     FM170300 24004KT P6SM BKN050
     FM170500 25005KT P6SM SCT050
     FM171400 29013G22KT P6SM SCT250
     FM172300 29009KT P6SM FEW250=



000
FTUS41 KLWX 161500 AAC
TAFIAD
TAF AMD
KIAD 161553Z 1616/1718 21004KT 1 1/2SM RA BR BKN030 BKN050 OVC090
     FM161800 16007KT 3SM -SHRA OVC050
     FM162100 18006KT P6SM BKN015
     FM162200 19005KT P6SM BKN008
     FM170300 24004KT P6SM BKN050
     FM170500 25005KT P6SM SCT050
     FM171700 29013KT P6SM SCT250=



000
FTUS41 KLWX 161500 AAC
TAFIAD
TAF AMD
KIAD 161553Z 1616/1718 21004KT 1 1/2SM RA BR BKN030 BKN050 OVC090
     FM161800 16007KT 3SM -SHRA OVC050
     FM162100 18006KT P6SM BKN015
     FM162200 19005KT P6SM BKN008
     FM170300 24004KT P6SM BKN050
     FM170500 25005KT P6SM SCT050
     FM171700 29013KT P6SM SCT250=



000
FTUS41 KLWX 161500 AAB
TAFIAD
TAF AMD
KIAD 161524Z 1615/1718 19005KT 4SM BR SCT070 OVC100
     FM161800 16007KT 3SM -SHRA OVC050
     FM162100 18006KT P6SM BKN015
     FM162200 19005KT P6SM BKN008
     FM170300 24004KT P6SM BKN050
     FM170500 25005KT P6SM SCT050
     FM171700 29013KT P6SM SCT250=



000
FTUS41 KLWX 161500 AAA
TAFBWI
TAF AMD
KBWI 161524Z 1615/1718 10003KT 2SM BR FEW002 SCT008 BKN019 BKN150
      BKN250
     FM161600 16007KT 3SM -SHRA OVC015
     FM162300 18005KT P6SM OVC008
     FM170000 19005KT P6SM BKN015
     FM170600 26006KT P6SM BKN090
     FM170700 26006KT P6SM SCT090
     FM171400 28010KT P6SM SCT090=



000
FTUS41 KLWX 161500 AAA
TAFDCA
TAF AMD
KDCA 161524Z 1615/1712 19004KT 6SM HZ SCT110 BKN140 OVC250
     FM161600 17008KT 4SM -SHRA OVC050
     FM162100 19006KT P6SM BKN015
     FM170300 24004KT P6SM BKN050
     FM170500 26006KT P6SM SCT050
     FM170600 26006KT P6SM SCT250=



000
FTUS41 KLWX 161500 AAA
TAFCHO
TAF AMD
KCHO 161510Z 1615/1712 00000KT 1 1/2SM RA BR BKN035 BKN050 OVC080
     FM161700 VRB03KT 3SM -RA BR OVC020
     FM162000 VRB04KT P6SM -DZ BKN025
     FM170100 25005KT P6SM SCT050=



000
FTUS41 KLWX 161500 AAB
TAFMRB
TAF AMD
KMRB 161508Z 1615/1712 00000KT 1SM RA BR BKN003 OVC040
     FM161700 VRB03KT 5SM -SHRA OVC020
     FM162000 18006KT P6SM OVC025
     FM170000 23004KT P6SM SCT050=



000
FTUS41 KLWX 161400 AAA
TAFMRB
TAF AMD
KMRB 161406Z 1614/1712 32003KT 2SM BR OVC003
     FM161500 VRB03KT 5SM -SHRA OVC040
     FM162000 18006KT P6SM OVC025
     FM170000 23004KT P6SM SCT050=



000
FTUS41 KLWX 161300 AAA
TAFIAD
TAF AMD
KIAD 161343Z 1614/1718 00000KT 4SM BR BCFG BKN120
     FM161600 16007KT 5SM -SHRA OVC030
     FM162100 21004KT P6SM -DZ OVC020
     FM170100 25005KT P6SM BKN050
     FM171000 28009KT P6SM SCT050=



000
FTUS41 KLWX 161100 CCA
TAFBWI
TAF COR
KBWI 161145Z 1612/1718 VRB03KT 1SM BR OVC002
      TEMPO 1612/1615 1/4SM FG
     FM161700 16007KT 3SM -SHRA OVC025
     FM162200 VRB05KT 5SM -DZ OVC020
     FM170300 27006KT P6SM SCT050
     FM171500 28010G16KT P6SM SCT050=



000
FTUS41 KLWX 161100 RRA
TAFMRB
TAF
KMRB 161144Z 1612/1712 VRB05KT 2SM BR OVC004
      TEMPO 1612/1614 1SM BR
     FM161400 VRB03KT 5SM -SHRA OVC040
     FM162000 18006KT P6SM OVC025
     FM170000 23004KT P6SM SCT050=



000
FTUS41 KLWX 161100 RRA
TAFBWI
TAF
KBWI 161144Z 1612/1718 VRB03KT 1SM BR OVC002
      TEMPO 1612/1615 1/2SM FG
     FM161700 16007KT 3SM -SHRA OVC025
     FM162200 VRB05KT 5SM -DZ OVC020
     FM170300 27006KT P6SM SCT050
     FM171500 28010G16KT P6SM SCT050=



000
FTUS41 KLWX 161100 RRA
TAFMTN
TAF
KMTN 161144Z 1612/1712 VRB03KT 1SM BR OVC008
     FM161700 14007KT 3SM -SHRA OVC025
     FM162200 VRB05KT 5SM -DZ OVC020
     FM170400 27006KT P6SM SCT050=



000
FTUS41 KLWX 161100 RRA
TAFDCA
TAF
KDCA 161144Z 1612/1712 VRB04KT 6SM BR BKN110
     FM161700 17008KT 5SM -SHRA OVC040
     FM162200 20004KT P6SM -DZ OVC020
     FM170200 24006KT P6SM BKN050
     FM171000 27008KT P6SM SCT050=



000
FTUS41 KLWX 161100 RRA
TAFCHO
TAF
KCHO 161144Z 1612/1712 VRB04KT P6SM BKN100
     FM161300 VRB03KT P6SM BKN050
     FM161500 19007KT 5SM -SHRA OVC040
     FM162000 VRB04KT P6SM -DZ BKN025
     FM170100 25005KT P6SM SCT050=



000
FTUS41 KLWX 161100 RRA
TAFIAD
TAF
KIAD 161144Z 1612/1718 VRB04KT 5SM BR BKN100
     FM161600 16007KT 5SM -SHRA OVC030
     FM162100 21004KT P6SM -DZ OVC020
     FM170100 25005KT P6SM BKN050
     FM171000 28009KT P6SM SCT050=



000
FTUS41 KLWX 161000 AAB
TAFBWI
TAF AMD
KBWI 161019Z 1610/1712 VRB03KT 1SM BR OVC004
     FM161400 13004KT 4SM BR SCT004 BKN020 OVC100
     FM161700 16007KT 5SM -SHRA OVC030
     FM162200 21004KT P6SM VCSH OVC020
     FM170200 27005KT P6SM SCT050=



000
FTUS41 KLWX 161000 AAA
TAFMRB
TAF AMD
KMRB 161015Z 1610/1706 00000KT 2SM BR BKN100
     FM161400 VRB03KT 5SM -SHRA OVC040
     FM162000 18006KT P6SM OVC025
     FM170000 23004KT P6SM SCT050=



000
FTUS41 KLWX 160800 AAA
TAFDCA
TAF AMD
KDCA 160842Z 1609/1706 VRB03KT P6SM BKN220
     FM161000 15004KT P6SM SCT030 BKN100
     FM161700 17008KT 5SM -SHRA OVC030
     FM162200 21004KT P6SM VCSH OVC020
     FM170200 26006KT P6SM SCT050=



000
FTUS41 KLWX 160800 AAA
TAFIAD
TAF AMD
KIAD 160841Z 1609/1712 VRB04KT P6SM BKN220
     FM161000 15004KT 6SM BR SCT030 BKN100
     FM161600 17007KT 5SM -SHRA OVC030
     FM162100 21004KT P6SM VCSH OVC020
     FM170100 26005KT P6SM SCT050=



000
FTUS41 KLWX 160800 AAA
TAFBWI
TAF AMD
KBWI 160835Z 1609/1712 VRB04KT 1SM BR OVC004
     FM161000 10003KT 4SM BR SCT004 SCT020 OVC100
     FM161700 16007KT 5SM -SHRA OVC030
     FM162200 21004KT P6SM VCSH OVC020
     FM170200 27005KT P6SM SCT050=



000
FTUS41 KLWX 160500 RRA
TAFDCA
TAF
KDCA 160542Z 1606/1706 VRB03KT P6SM BKN220
     FM161000 14004KT P6SM SCT030 BKN100
     FM161700 17008KT 5SM -SHRA OVC030
     FM162200 21004KT P6SM VCSH OVC020
     FM170200 26006KT P6SM SCT050=



000
FTUS41 KLWX 160500 RRA
TAFCHO
TAF
KCHO 160542Z 1606/1706 18006KT P6SM BKN100
     FM161200 VRB03KT P6SM BKN050
     FM161700 19007KT 5SM -SHRA OVC040
     FM162000 22004KT P6SM BKN025
     FM170200 25004KT P6SM FEW050=



000
FTUS41 KLWX 160500 RRA
TAFIAD
TAF
KIAD 160542Z 1606/1712 VRB03KT P6SM BKN220
     FM161000 16004KT P6SM SCT030 BKN100
     FM161600 17007KT 5SM -SHRA OVC030
     FM162100 21004KT P6SM VCSH OVC020
     FM170100 26005KT P6SM SCT050=



000
FTUS41 KLWX 160500 RRA
TAFMRB
TAF
KMRB 160542Z 1606/1706 00000KT 5SM BR BKN100
     FM161400 VRB03KT 5SM -SHRA OVC040
     FM162000 18006KT P6SM OVC025
     FM170000 23004KT P6SM SCT050=



000
FTUS41 KLWX 160500 RRA
TAFMTN
TAF
KMTN 160542Z 1606/1706 NIL=



000
FTUS41 KLWX 160500 RRA
TAFBWI
TAF
KBWI 160542Z 1606/1712 VRB04KT 6SM BR BKN220
     FM161000 10003KT P6SM SCT030 BKN100
     FM161700 16007KT 5SM -SHRA OVC030
     FM162200 21004KT P6SM VCSH OVC020
     FM170200 27005KT P6SM SCT050=



000
FTUS41 KLWX 160300 AAA
TAFBWI
TAF AMD
KBWI 160339Z 1604/1706 09004KT 5SM BR SCT250
     FM160700 13004KT 2SM BR OVC030
     FM161400 15005KT P6SM OVC030
     FM161800 16007KT 5SM -SHRA OVC030
     FM162300 19006KT P6SM OVC015=



000
FTUS41 KLWX 160300 AAA
TAFBWI
TAF AMD
KBWI 160339Z 1604/1706 09004KT 5SM BR SCT250
     FM160700 13004KT 2SM BR OVC030
     FM161400 15005KT P6SM OVC030
     FM161800 16007KT 5SM -SHRA OVC030
     FM162300 19006KT P6SM OVC015=



000
FTUS41 KLWX 152300
TAFIAD
TAF
KIAD 152330Z 1600/1706 21004KT P6SM SCT220
     FM161200 16004KT P6SM BKN050
     FM161600 16005KT 5SM -SHRA OVC040
     FM162100 20006KT P6SM OVC020=



000
FTUS41 KLWX 152300
TAFMTN
TAF
KMTN 152330Z 1600/1624 VRB03KT P6SM SCT250
     FM161800 16007KT 5SM -SHRA OVC025
     FM162300 18007KT P6SM OVC015
      AMD NOT SKED 1602/1612=



000
FTUS41 KLWX 152300
TAFDCA
TAF
KDCA 152330Z 1600/1624 12006KT P6SM SCT250
     FM161000 15006KT P6SM BKN070
     FM161600 16008KT P6SM -SHRA OVC040
     FM162200 20007KT P6SM BKN025=



000
FTUS41 KLWX 152300
TAFBWI
TAF
KBWI 152330Z 1600/1706 00000KT P6SM FEW250
     FM160900 13004KT P6SM BKN050
     FM161800 16007KT P6SM -SHRA OVC040
     FM162300 19006KT P6SM OVC015=



000
FTUS41 KLWX 152300
TAFCHO
TAF
KCHO 152330Z 1600/1624 18006KT P6SM SKC
     FM161200 VRB03KT P6SM BKN050
     FM161800 19007KT 5SM -SHRA OVC040=



000
FTUS41 KLWX 152300
TAFMRB
TAF
KMRB 152330Z 1600/1624 00000KT P6SM SKC
     FM161600 06003KT 5SM -SHRA OVC040
     FM162200 17006KT P6SM OVC025=



000
FTUS41 KLWX 152000 AAA
TAFIAD
TAF AMD
KIAD 152047Z 1521/1624 00000KT P6SM FEW200
     FM161200 16006KT P6SM BKN035
     FM161800 16008KT 5SM -SHRA OVC030
     FM162100 19008KT P6SM OVC020=



000
FTUS41 KLWX 152000 AAA
TAFDCA
TAF AMD
KDCA 152047Z 1521/1618 17004KT P6SM SKC
     FM161000 15006KT P6SM BKN150=



000
FTUS41 KLWX 152000 AAA
TAFBWI
TAF AMD
KBWI 152047Z 1521/1624 09006KT P6SM SKC
     FM161200 14005KT P6SM BKN100
     FM161800 16007KT 5SM -SHRA OVC030
     FM162300 19006KT P6SM OVC015=



000
FTUS41 KLWX 151700
TAFMRB
TAF
KMRB 151739Z 1518/1618 29006KT P6SM FEW028
     FM160500 14004KT P6SM BKN150
     FM161200 16005KT P6SM -SHRA BKN025
     FM161500 15006KT P6SM -SHRA OVC020=



000
FTUS41 KLWX 151700
TAFBWI
TAF
KBWI 151739Z 1518/1624 00000KT P6SM BKN029
     FM151900 VRB03KT P6SM SCT030
     FM160400 14004KT P6SM SCT250
     FM161200 14005KT P6SM BKN100
     FM161800 16007KT P6SM -SHRA OVC060
     FM162100 18007KT 5SM -SHRA BKN015
     FM162300 19006KT P6SM BKN015=



000
FTUS41 KLWX 151700
TAFCHO
TAF
KCHO 151739Z 1518/1618 17005KT P6SM SKC
     FM161200 17004KT P6SM BKN050=



000
FTUS41 KLWX 151700
TAFIAD
TAF
KIAD 151739Z 1518/1624 VRB03KT P6SM FEW030
     FM161200 16006KT P6SM BKN035
     FM161800 16008KT P6SM -SHRA OVC020
     FM162100 19008KT P6SM BKN020=



000
FTUS41 KLWX 151700
TAFMTN
TAF
KMTN 151739Z 1518/1618 15007KT P6SM OVC029
     FM151930 00000KT P6SM SCT060
     FM160500 15004KT P6SM BKN200=



000
FTUS41 KLWX 151700
TAFDCA
TAF
KDCA 151739Z 1518/1618 15004KT P6SM SCT030
     FM160500 15004KT P6SM SCT250
     FM161500 16007KT P6SM BKN050=



000
FTUS41 KLWX 151400 AAA
TAFIAD
TAF AMD
KIAD 151434Z 1515/1618 16003KT P6SM BKN030
     FM151800 VRB03KT P6SM SCT060
     FM161200 16006KT P6SM BKN035
     FM161700 16008KT P6SM -SHRA OVC040=



000
FTUS41 KLWX 151400 AAA
TAFBWI
TAF AMD
KBWI 151434Z 1515/1618 00000KT P6SM BKN029
     FM160100 00000KT P6SM SCT200
     FM161200 14005KT P6SM BKN100
     FM161700 15007KT P6SM -SHRA OVC060=



000
FTUS41 KLWX 151400 AAA
TAFDCA
TAF AMD
KDCA 151434Z 1515/1612 17003KT P6SM BKN030
     FM152100 00000KT P6SM SCT150
     FM161000 15006KT P6SM BKN150=



000
FTUS41 KLWX 151100 RRA
TAFMTN
TAF
KMTN 151143Z 1512/1612 VRB03KT P6SM OVC025
     FM151600 VRB04KT P6SM SCT030 SCT060
     FM161000 13005KT 4SM BR BKN030=



000
FTUS41 KLWX 151100 RRA
TAFCHO
TAF
KCHO 151143Z 1512/1612 VRB03KT P6SM SKC
     FM152200 VRB03KT P6SM SCT250
     FM160800 17004KT 4SM BR BKN100=



000
FTUS41 KLWX 151100 RRA
TAFDCA
TAF
KDCA 151143Z 1512/1612 VRB03KT P6SM OVC030
     FM151600 VRB05KT P6SM SCT030 SCT060
     FM161000 15006KT 5SM BR BKN035=



000
FTUS41 KLWX 151100 RRA
TAFBWI
TAF
KBWI 151143Z 1512/1618 VRB03KT P6SM OVC025
     FM151600 VRB04KT P6SM SCT030 SCT060
     FM161000 13005KT 4SM BR BKN030
     FM161700 15007KT 5SM -SHRA OVC060=



000
FTUS41 KLWX 151100 RRA
TAFIAD
TAF
KIAD 151143Z 1512/1618 VRB03KT P6SM OVC030
     FM151700 VRB04KT P6SM SCT030 SCT060
     FM160800 16005KT 4SM BR BKN020
     FM161500 16008KT 5SM -SHRA OVC040=



000
FTUS41 KLWX 151100 RRA
TAFMRB
TAF
KMRB 151143Z 1512/1612 30007KT P6SM OVC025
     FM151600 VRB05KT P6SM BKN050
     FM160000 13004KT P6SM SCT060
     FM161100 16005KT P6SM -SHRA BKN030=



000
FTUS41 KLWX 150800 AAA
TAFCHO
TAF AMD
KCHO 150841Z 1509/1606 VRB04KT P6SM SKC
     FM151700 VRB05KT P6SM SCT250=



000
FTUS41 KLWX 150800 AAA
TAFBWI
TAF AMD
KBWI 150841Z 1509/1612 VRB03KT P6SM BKN025
     FM151500 VRB05KT P6SM SCT060
     FM160500 00000KT P6SM SCT200=



000
FTUS41 KLWX 150800 AAA
TAFDCA
TAF AMD
KDCA 150841Z 1509/1606 33004KT P6SM BKN030
     FM151500 VRB05KT P6SM SCT060
     FM160500 VRB03KT P6SM SCT200=



000
FTUS41 KLWX 150800 AAA
TAFMRB
TAF AMD
KMRB 150841Z 1509/1606 30005KT P6SM OVC025
     FM151600 VRB05KT P6SM BKN050
     FM160000 13004KT P6SM SCT060=



000
FTUS41 KLWX 150800 AAA
TAFIAD
TAF AMD
KIAD 150841Z 1509/1612 33004KT P6SM BKN030
     FM151400 VRB04KT P6SM SCT060
     FM160700 15005KT P6SM SCT200=



000
FTUS41 KLWX 150800 AAA
TAFMTN
TAF AMD
KMTN 150841Z 1509/1606 NIL=



000
FTUS41 KLWX 150500 RRA
TAFMRB
TAF
KMRB 150541Z 1506/1606 VRB04KT P6SM OVC030
     FM151800 VRB05KT P6SM BKN050
     FM160000 13004KT P6SM SCT060=



000
FTUS41 KLWX 150500 RRA
TAFBWI
TAF
KBWI 150541Z 1506/1612 33004KT P6SM BKN030
     FM150800 31004KT P6SM BKN025
     FM151500 VRB05KT P6SM SCT060
     FM160500 00000KT P6SM SCT200=



000
FTUS41 KLWX 150500 RRA
TAFIAD
TAF
KIAD 150541Z 1506/1612 34004KT P6SM FEW030
     FM150800 34005KT P6SM BKN030
     FM151400 VRB04KT P6SM SCT060
     FM160700 15005KT P6SM SCT200=



000
FTUS41 KLWX 150500 RRA
TAFMTN
TAF
KMTN 150541Z 1506/1606 NIL=



000
FTUS41 KLWX 150500 RRA
TAFCHO
TAF
KCHO 150541Z 1506/1606 VRB03KT P6SM SKC
     FM151700 VRB05KT P6SM SCT250=



000
FTUS41 KLWX 150500 RRA
TAFDCA
TAF
KDCA 150541Z 1506/1606 33004KT P6SM BKN030
     FM151500 VRB05KT P6SM SCT060
     FM160500 VRB03KT P6SM SCT200=



    US Dept of Commerce
    National Oceanic and Atmospheric Administration
    National Weather Service
    1325 East West Highway
    Silver Spring, MD 20910
    Page Author: NWS Internet Services Team
Disclaimer
Information Quality
Credits
Glossary
Privacy Policy
Freedom of Information Act (FOIA)
About Us
Career Opportunities